sensor_id;sensor_type;location;lat;lon;timestamp;P1;durP1;ratioP1;P2;durP2;ratioP2
24153;SDS011;12312;53.362;-1.518;2022-10-22T00:01:16;6.90;;;2.63;;
24153;SDS011;12312;53.362;-1.518;2022-10-22T00:03:42;4.43;;;2.55;;
24153;SDS011;12312;53.362;-1.518;2022-10-22T00:06:07;6.70;;;2.70;;
24153;SDS011;12312;53.362;-1.518;2022-10-22T00:08:33;7.57;;;2.63;;
24153;SDS011;12312;53.362;-1.518;2022-10-22T00:11:06;7.03;;;2.38;;
24153;SDS011;12312;53.362;-1.518;2022-10-22T00:13:33;10.02;;;2.70;;
24153;SDS011;12312;53.362;-1.518;2022-10-22T00:16:02;7.47;;;2.05;;
24153;SDS011;12312;53.362;-1.518;2022-10-22T00:18:27;6.70;;;2.25;;
24153;SDS011;12312;53.362;-1.518;2022-10-22T00:20:53;6.57;;;1.90;;
24153;SDS011;12312;53.362;-1.518;2022-10-22T00:23:18;6.50;;;1.98;;
24153;SDS011;12312;53.362;-1.518;2022-10-22T00:25:44;7.43;;;1.92;;
24153;SDS011;12312;53.362;-1.518;2022-10-22T00:28:11;10.07;;;1.73;;
24153;SDS011;12312;53.362;-1.518;2022-10-22T00:30:36;8.15;;;2.17;;
24153;SDS011;12312;53.362;-1.518;2022-10-22T00:33:02;7.03;;;1.83;;
24153;SDS011;12312;53.362;-1.518;2022-10-22T00:35:28;9.52;;;1.75;;
24153;SDS011;12312;53.362;-1.518;2022-10-22T00:37:54;5.22;;;1.45;;
24153;SDS011;12312;53.362;-1.518;2022-10-22T00:40:19;10.35;;;2.20;;
24153;SDS011;12312;53.362;-1.518;2022-10-22T00:42:45;9.43;;;2.20;;
24153;SDS011;12312;53.362;-1.518;2022-10-22T00:45:20;8.90;;;2.15;;
24153;SDS011;12312;53.362;-1.518;2022-10-22T00:53:01;8.10;;;1.63;;
24153;SDS011;12312;53.362;-1.518;2022-10-22T00:55:28;6.53;;;1.70;;
24153;SDS011;12312;53.362;-1.518;2022-10-22T00:57:55;10.40;;;1.75;;
24153;SDS011;12312;53.362;-1.518;2022-10-22T01:00:22;6.22;;;1.58;;
24153;SDS011;12312;53.362;-1.518;2022-10-22T01:02:49;6.20;;;1.42;;
24153;SDS011;12312;53.362;-1.518;2022-10-22T01:05:16;7.53;;;1.95;;
24153;SDS011;12312;53.362;-1.518;2022-10-22T01:07:49;8.80;;;2.10;;
24153;SDS011;12312;53.362;-1.518;2022-10-22T01:13:05;9.35;;;1.88;;
24153;SDS011;12312;53.362;-1.518;2022-10-22T01:15:58;5.13;;;1.52;;
24153;SDS011;12312;53.362;-1.518;2022-10-22T01:29:36;8.90;;;1.90;;
24153;SDS011;12312;53.362;-1.518;2022-10-22T01:32:23;8.88;;;2.13;;
24153;SDS011;12312;53.362;-1.518;2022-10-22T01:34:56;8.63;;;2.28;;
24153;SDS011;12312;53.362;-1.518;2022-10-22T01:37:27;8.43;;;2.15;;
24153;SDS011;12312;53.362;-1.518;2022-10-22T01:39:56;7.47;;;2.10;;
24153;SDS011;12312;53.362;-1.518;2022-10-22T01:42:23;6.95;;;2.13;;
24153;SDS011;12312;53.362;-1.518;2022-10-22T01:44:48;12.00;;;2.75;;
24153;SDS011;12312;53.362;-1.518;2022-10-22T01:47:24;9.88;;;2.13;;
24153;SDS011;12312;53.362;-1.518;2022-10-22T01:55:51;6.18;;;2.03;;
24153;SDS011;12312;53.362;-1.518;2022-10-22T01:58:41;9.38;;;2.78;;
24153;SDS011;12312;53.362;-1.518;2022-10-22T02:06:44;8.73;;;2.95;;
24153;SDS011;12312;53.362;-1.518;2022-10-22T02:09:14;7.32;;;2.40;;
24153;SDS011;12312;53.362;-1.518;2022-10-22T02:11:42;8.38;;;2.92;;
24153;SDS011;12312;53.362;-1.518;2022-10-22T02:14:10;11.63;;;2.85;;
24153;SDS011;12312;53.362;-1.518;2022-10-22T02:16:44;7.18;;;2.50;;
24153;SDS011;12312;53.362;-1.518;2022-10-22T02:19:14;7.05;;;2.85;;
24153;SDS011;12312;53.362;-1.518;2022-10-22T02:21:43;13.65;;;2.53;;
24153;SDS011;12312;53.362;-1.518;2022-10-22T02:24:09;14.90;;;3.22;;
24153;SDS011;12312;53.362;-1.518;2022-10-22T02:26:40;10.38;;;3.28;;
24153;SDS011;12312;53.362;-1.518;2022-10-22T02:29:13;12.23;;;2.70;;
24153;SDS011;12312;53.362;-1.518;2022-10-22T02:31:44;9.65;;;2.50;;
24153;SDS011;12312;53.362;-1.518;2022-10-22T02:34:13;10.25;;;2.55;;
24153;SDS011;12312;53.362;-1.518;2022-10-22T02:36:43;9.20;;;2.60;;
24153;SDS011;12312;53.362;-1.518;2022-10-22T02:39:11;11.35;;;3.70;;
24153;SDS011;12312;53.362;-1.518;2022-10-22T02:41:39;8.30;;;3.00;;
24153;SDS011;12312;53.362;-1.518;2022-10-22T02:44:09;12.45;;;3.00;;
24153;SDS011;12312;53.362;-1.518;2022-10-22T02:46:36;10.50;;;3.08;;
24153;SDS011;12312;53.362;-1.518;2022-10-22T02:49:02;14.02;;;3.10;;
24153;SDS011;12312;53.362;-1.518;2022-10-22T02:51:28;17.58;;;3.25;;
24153;SDS011;12312;53.362;-1.518;2022-10-22T02:53:54;14.25;;;3.20;;
24153;SDS011;12312;53.362;-1.518;2022-10-22T02:56:21;9.65;;;2.15;;
24153;SDS011;12312;53.362;-1.518;2022-10-22T02:58:48;7.55;;;2.58;;
24153;SDS011;12312;53.362;-1.518;2022-10-22T03:01:14;9.60;;;2.13;;
24153;SDS011;12312;53.362;-1.518;2022-10-22T03:03:40;9.80;;;2.42;;
24153;SDS011;12312;53.362;-1.518;2022-10-22T03:06:10;6.38;;;2.00;;
24153;SDS011;12312;53.362;-1.518;2022-10-22T03:08:36;7.20;;;2.10;;
24153;SDS011;12312;53.362;-1.518;2022-10-22T03:11:03;9.30;;;1.63;;
24153;SDS011;12312;53.362;-1.518;2022-10-22T03:13:28;6.78;;;2.40;;
24153;SDS011;12312;53.362;-1.518;2022-10-22T03:15:54;5.57;;;1.50;;
24153;SDS011;12312;53.362;-1.518;2022-10-22T03:18:20;7.13;;;1.42;;
24153;SDS011;12312;53.362;-1.518;2022-10-22T03:20:46;2.75;;;1.02;;
24153;SDS011;12312;53.362;-1.518;2022-10-22T03:23:12;6.95;;;1.50;;
24153;SDS011;12312;53.362;-1.518;2022-10-22T03:25:41;6.97;;;1.63;;
24153;SDS011;12312;53.362;-1.518;2022-10-22T03:28:09;6.78;;;1.50;;
24153;SDS011;12312;53.362;-1.518;2022-10-22T03:30:37;8.63;;;2.00;;
24153;SDS011;12312;53.362;-1.518;2022-10-22T03:33:03;6.07;;;1.90;;
24153;SDS011;12312;53.362;-1.518;2022-10-22T03:35:29;7.05;;;2.65;;
24153;SDS011;12312;53.362;-1.518;2022-10-22T03:37:55;11.23;;;2.47;;
24153;SDS011;12312;53.362;-1.518;2022-10-22T03:40:20;8.93;;;2.90;;
24153;SDS011;12312;53.362;-1.518;2022-10-22T03:42:46;9.50;;;3.05;;
24153;SDS011;12312;53.362;-1.518;2022-10-22T03:45:12;14.80;;;2.95;;
24153;SDS011;12312;53.362;-1.518;2022-10-22T03:47:37;11.55;;;2.85;;
24153;SDS011;12312;53.362;-1.518;2022-10-22T03:50:03;8.23;;;2.83;;
24153;SDS011;12312;53.362;-1.518;2022-10-22T03:52:34;11.20;;;2.80;;
24153;SDS011;12312;53.362;-1.518;2022-10-22T03:55:03;10.63;;;2.88;;
24153;SDS011;12312;53.362;-1.518;2022-10-22T03:57:30;10.27;;;2.42;;
24153;SDS011;12312;53.362;-1.518;2022-10-22T03:59:57;9.23;;;2.53;;
24153;SDS011;12312;53.362;-1.518;2022-10-22T04:02:26;4.28;;;2.00;;
24153;SDS011;12312;53.362;-1.518;2022-10-22T04:04:52;10.25;;;2.60;;
24153;SDS011;12312;53.362;-1.518;2022-10-22T04:07:17;9.98;;;2.92;;
24153;SDS011;12312;53.362;-1.518;2022-10-22T04:09:43;8.05;;;2.10;;
24153;SDS011;12312;53.362;-1.518;2022-10-22T04:12:11;8.48;;;2.42;;
24153;SDS011;12312;53.362;-1.518;2022-10-22T04:14:38;10.30;;;2.08;;
24153;SDS011;12312;53.362;-1.518;2022-10-22T04:17:56;5.40;;;1.60;;
24153;SDS011;12312;53.362;-1.518;2022-10-22T04:20:21;4.03;;;1.10;;
24153;SDS011;12312;53.362;-1.518;2022-10-22T04:22:47;4.18;;;1.00;;
24153;SDS011;12312;53.362;-1.518;2022-10-22T04:25:13;3.33;;;1.40;;
24153;SDS011;12312;53.362;-1.518;2022-10-22T04:27:39;5.05;;;1.25;;
24153;SDS011;12312;53.362;-1.518;2022-10-22T04:30:04;3.78;;;1.10;;
24153;SDS011;12312;53.362;-1.518;2022-10-22T04:32:31;3.42;;;0.90;;
24153;SDS011;12312;53.362;-1.518;2022-10-22T04:34:56;3.70;;;1.10;;
24153;SDS011;12312;53.362;-1.518;2022-10-22T04:37:22;4.03;;;1.20;;
24153;SDS011;12312;53.362;-1.518;2022-10-22T04:39:47;8.05;;;1.10;;
24153;SDS011;12312;53.362;-1.518;2022-10-22T04:42:13;6.22;;;1.30;;
24153;SDS011;12312;53.362;-1.518;2022-10-22T04:44:39;7.32;;;1.35;;
24153;SDS011;12312;53.362;-1.518;2022-10-22T04:47:04;5.68;;;1.05;;
24153;SDS011;12312;53.362;-1.518;2022-10-22T04:49:31;9.68;;;1.30;;
24153;SDS011;12312;53.362;-1.518;2022-10-22T04:51:57;6.38;;;1.23;;
24153;SDS011;12312;53.362;-1.518;2022-10-22T04:54:23;4.28;;;1.00;;
24153;SDS011;12312;53.362;-1.518;2022-10-22T04:56:50;8.65;;;1.60;;
24153;SDS011;12312;53.362;-1.518;2022-10-22T04:59:16;13.60;;;1.65;;
24153;SDS011;12312;53.362;-1.518;2022-10-22T05:01:43;8.30;;;1.75;;
24153;SDS011;12312;53.362;-1.518;2022-10-22T05:04:15;6.72;;;1.40;;
24153;SDS011;12312;53.362;-1.518;2022-10-22T05:06:42;10.05;;;1.73;;
24153;SDS011;12312;53.362;-1.518;2022-10-22T05:09:15;9.13;;;1.30;;
24153;SDS011;12312;53.362;-1.518;2022-10-22T05:11:43;8.07;;;1.45;;
24153;SDS011;12312;53.362;-1.518;2022-10-22T05:14:11;7.47;;;1.30;;
24153;SDS011;12312;53.362;-1.518;2022-10-22T05:16:37;4.43;;;1.17;;
24153;SDS011;12312;53.362;-1.518;2022-10-22T05:19:03;6.13;;;1.35;;
24153;SDS011;12312;53.362;-1.518;2022-10-22T05:21:30;8.38;;;1.10;;
24153;SDS011;12312;53.362;-1.518;2022-10-22T05:23:56;7.07;;;1.10;;
24153;SDS011;12312;53.362;-1.518;2022-10-22T05:26:24;7.97;;;1.40;;
24153;SDS011;12312;53.362;-1.518;2022-10-22T05:28:50;8.73;;;1.65;;
24153;SDS011;12312;53.362;-1.518;2022-10-22T05:31:18;12.13;;;1.23;;
24153;SDS011;12312;53.362;-1.518;2022-10-22T05:33:44;6.53;;;1.10;;
24153;SDS011;12312;53.362;-1.518;2022-10-22T05:36:20;10.20;;;1.80;;
24153;SDS011;12312;53.362;-1.518;2022-10-22T05:38:46;8.32;;;1.80;;
24153;SDS011;12312;53.362;-1.518;2022-10-22T05:41:13;8.40;;;1.50;;
24153;SDS011;12312;53.362;-1.518;2022-10-22T05:43:40;12.43;;;1.52;;
24153;SDS011;12312;53.362;-1.518;2022-10-22T05:46:07;6.60;;;1.25;;
24153;SDS011;12312;53.362;-1.518;2022-10-22T05:48:38;9.23;;;1.70;;
24153;SDS011;12312;53.362;-1.518;2022-10-22T05:51:04;10.18;;;2.15;;
24153;SDS011;12312;53.362;-1.518;2022-10-22T05:53:35;8.90;;;1.70;;
24153;SDS011;12312;53.362;-1.518;2022-10-22T05:56:03;11.13;;;1.60;;
24153;SDS011;12312;53.362;-1.518;2022-10-22T05:58:31;17.35;;;2.15;;
24153;SDS011;12312;53.362;-1.518;2022-10-22T06:01:04;9.02;;;1.70;;
24153;SDS011;12312;53.362;-1.518;2022-10-22T06:03:31;12.23;;;1.63;;
24153;SDS011;12312;53.362;-1.518;2022-10-22T06:06:01;8.70;;;1.88;;
24153;SDS011;12312;53.362;-1.518;2022-10-22T06:08:29;10.15;;;1.77;;
24153;SDS011;12312;53.362;-1.518;2022-10-22T06:10:56;9.40;;;1.83;;
24153;SDS011;12312;53.362;-1.518;2022-10-22T06:13:21;11.98;;;2.70;;
24153;SDS011;12312;53.362;-1.518;2022-10-22T06:15:48;13.82;;;2.10;;
24153;SDS011;12312;53.362;-1.518;2022-10-22T06:18:14;10.68;;;1.92;;
24153;SDS011;12312;53.362;-1.518;2022-10-22T06:20:40;9.85;;;1.83;;
24153;SDS011;12312;53.362;-1.518;2022-10-22T06:23:07;12.23;;;1.70;;
24153;SDS011;12312;53.362;-1.518;2022-10-22T06:25:33;12.93;;;1.77;;
24153;SDS011;12312;53.362;-1.518;2022-10-22T06:27:58;14.15;;;2.13;;
24153;SDS011;12312;53.362;-1.518;2022-10-22T06:30:24;14.15;;;2.13;;
24153;SDS011;12312;53.362;-1.518;2022-10-22T06:32:49;14.20;;;2.10;;
24153;SDS011;12312;53.362;-1.518;2022-10-22T06:35:15;16.92;;;2.45;;
24153;SDS011;12312;53.362;-1.518;2022-10-22T06:37:41;9.70;;;1.60;;
24153;SDS011;12312;53.362;-1.518;2022-10-22T06:40:06;14.00;;;2.10;;
24153;SDS011;12312;53.362;-1.518;2022-10-22T06:42:32;12.60;;;2.17;;
24153;SDS011;12312;53.362;-1.518;2022-10-22T06:44:59;18.38;;;2.80;;
24153;SDS011;12312;53.362;-1.518;2022-10-22T06:47:25;13.27;;;1.90;;
24153;SDS011;12312;53.362;-1.518;2022-10-22T06:49:50;13.07;;;1.80;;
24153;SDS011;12312;53.362;-1.518;2022-10-22T06:52:16;11.73;;;2.10;;
24153;SDS011;12312;53.362;-1.518;2022-10-22T06:54:43;15.43;;;1.67;;
24153;SDS011;12312;53.362;-1.518;2022-10-22T06:57:08;11.30;;;2.50;;
24153;SDS011;12312;53.362;-1.518;2022-10-22T06:59:34;11.20;;;2.00;;
24153;SDS011;12312;53.362;-1.518;2022-10-22T07:01:59;10.65;;;1.92;;
24153;SDS011;12312;53.362;-1.518;2022-10-22T07:04:25;12.05;;;2.20;;
24153;SDS011;12312;53.362;-1.518;2022-10-22T07:06:53;14.30;;;2.75;;
24153;SDS011;12312;53.362;-1.518;2022-10-22T07:09:19;10.88;;;1.65;;
24153;SDS011;12312;53.362;-1.518;2022-10-22T07:11:45;13.23;;;2.70;;
24153;SDS011;12312;53.362;-1.518;2022-10-22T07:14:10;13.80;;;2.10;;
24153;SDS011;12312;53.362;-1.518;2022-10-22T07:16:37;9.35;;;2.08;;
24153;SDS011;12312;53.362;-1.518;2022-10-22T07:19:03;11.75;;;1.83;;
24153;SDS011;12312;53.362;-1.518;2022-10-22T07:21:29;12.35;;;2.17;;
24153;SDS011;12312;53.362;-1.518;2022-10-22T07:23:55;14.10;;;2.13;;
24153;SDS011;12312;53.362;-1.518;2022-10-22T07:26:22;12.65;;;1.83;;
24153;SDS011;12312;53.362;-1.518;2022-10-22T07:28:49;14.43;;;2.63;;
24153;SDS011;12312;53.362;-1.518;2022-10-22T07:31:17;13.32;;;2.20;;
24153;SDS011;12312;53.362;-1.518;2022-10-22T07:33:43;19.02;;;2.38;;
24153;SDS011;12312;53.362;-1.518;2022-10-22T07:36:10;16.58;;;2.40;;
24153;SDS011;12312;53.362;-1.518;2022-10-22T07:38:42;8.77;;;2.40;;
24153;SDS011;12312;53.362;-1.518;2022-10-22T07:41:09;19.77;;;2.60;;
24153;SDS011;12312;53.362;-1.518;2022-10-22T07:43:35;10.10;;;1.85;;
24153;SDS011;12312;53.362;-1.518;2022-10-22T07:46:01;9.18;;;1.77;;
24153;SDS011;12312;53.362;-1.518;2022-10-22T07:48:27;12.30;;;2.38;;
24153;SDS011;12312;53.362;-1.518;2022-10-22T07:50:53;12.98;;;1.83;;
24153;SDS011;12312;53.362;-1.518;2022-10-22T07:53:19;15.48;;;2.60;;
24153;SDS011;12312;53.362;-1.518;2022-10-22T07:55:49;10.02;;;2.13;;
24153;SDS011;12312;53.362;-1.518;2022-10-22T07:58:16;12.85;;;2.15;;
24153;SDS011;12312;53.362;-1.518;2022-10-22T08:00:43;13.40;;;2.00;;
24153;SDS011;12312;53.362;-1.518;2022-10-22T08:03:10;16.05;;;2.78;;
24153;SDS011;12312;53.362;-1.518;2022-10-22T08:05:36;14.50;;;2.38;;
24153;SDS011;12312;53.362;-1.518;2022-10-22T08:08:03;15.40;;;2.08;;
24153;SDS011;12312;53.362;-1.518;2022-10-22T08:10:32;14.80;;;1.98;;
24153;SDS011;12312;53.362;-1.518;2022-10-22T08:12:58;16.10;;;2.85;;
24153;SDS011;12312;53.362;-1.518;2022-10-22T08:15:25;15.05;;;2.05;;
24153;SDS011;12312;53.362;-1.518;2022-10-22T08:17:51;19.10;;;2.38;;
24153;SDS011;12312;53.362;-1.518;2022-10-22T08:20:17;16.63;;;3.15;;
24153;SDS011;12312;53.362;-1.518;2022-10-22T08:22:44;12.73;;;3.33;;
24153;SDS011;12312;53.362;-1.518;2022-10-22T08:25:10;20.17;;;2.53;;
24153;SDS011;12312;53.362;-1.518;2022-10-22T08:27:37;12.88;;;2.13;;
24153;SDS011;12312;53.362;-1.518;2022-10-22T08:30:04;17.98;;;2.65;;
24153;SDS011;12312;53.362;-1.518;2022-10-22T08:32:30;18.35;;;2.08;;
24153;SDS011;12312;53.362;-1.518;2022-10-22T08:34:56;21.50;;;2.88;;
24153;SDS011;12312;53.362;-1.518;2022-10-22T08:37:22;19.00;;;2.58;;
24153;SDS011;12312;53.362;-1.518;2022-10-22T08:39:47;14.13;;;2.00;;
24153;SDS011;12312;53.362;-1.518;2022-10-22T08:42:26;13.40;;;1.85;;
24153;SDS011;12312;53.362;-1.518;2022-10-22T08:45:11;12.40;;;2.00;;
24153;SDS011;12312;53.362;-1.518;2022-10-22T08:50:14;18.35;;;2.55;;
24153;SDS011;12312;53.362;-1.518;2022-10-22T08:52:47;13.32;;;2.17;;
24153;SDS011;12312;53.362;-1.518;2022-10-22T08:55:15;11.35;;;2.03;;
24153;SDS011;12312;53.362;-1.518;2022-10-22T09:00:41;14.13;;;1.75;;
24153;SDS011;12312;53.362;-1.518;2022-10-22T09:08:29;11.57;;;2.35;;
24153;SDS011;12312;53.362;-1.518;2022-10-22T09:11:04;21.00;;;2.75;;
24153;SDS011;12312;53.362;-1.518;2022-10-22T09:13:44;16.77;;;2.33;;
24153;SDS011;12312;53.362;-1.518;2022-10-22T09:27:25;18.45;;;2.90;;
24153;SDS011;12312;53.362;-1.518;2022-10-22T09:29:53;16.52;;;2.30;;
24153;SDS011;12312;53.362;-1.518;2022-10-22T09:32:18;15.65;;;3.05;;
24153;SDS011;12312;53.362;-1.518;2022-10-22T09:34:45;17.55;;;2.60;;
24153;SDS011;12312;53.362;-1.518;2022-10-22T09:37:11;17.40;;;2.92;;
24153;SDS011;12312;53.362;-1.518;2022-10-22T09:39:43;17.73;;;2.13;;
24153;SDS011;12312;53.362;-1.518;2022-10-22T09:42:14;15.50;;;2.28;;
24153;SDS011;12312;53.362;-1.518;2022-10-22T09:44:42;17.65;;;2.42;;
24153;SDS011;12312;53.362;-1.518;2022-10-22T09:52:41;15.35;;;2.10;;
24153;SDS011;12312;53.362;-1.518;2022-10-22T09:55:16;12.40;;;1.85;;
24153;SDS011;12312;53.362;-1.518;2022-10-22T09:57:43;15.80;;;2.50;;
24153;SDS011;12312;53.362;-1.518;2022-10-22T10:00:17;16.65;;;1.90;;
24153;SDS011;12312;53.362;-1.518;2022-10-22T10:02:44;20.48;;;2.28;;
24153;SDS011;12312;53.362;-1.518;2022-10-22T10:05:18;17.17;;;2.47;;
24153;SDS011;12312;53.362;-1.518;2022-10-22T10:07:44;13.02;;;2.00;;
24153;SDS011;12312;53.362;-1.518;2022-10-22T10:27:03;10.13;;;2.45;;
24153;SDS011;12312;53.362;-1.518;2022-10-22T10:38:13;14.50;;;2.50;;
24153;SDS011;12312;53.362;-1.518;2022-10-22T10:41:30;15.50;;;2.03;;
24153;SDS011;12312;53.362;-1.518;2022-10-22T10:50:00;8.30;;;1.90;;
24153;SDS011;12312;53.362;-1.518;2022-10-22T10:53:01;12.63;;;1.95;;
24153;SDS011;12312;53.362;-1.518;2022-10-22T11:01:11;12.55;;;2.40;;
24153;SDS011;12312;53.362;-1.518;2022-10-22T11:06:32;14.05;;;1.77;;
24153;SDS011;12312;53.362;-1.518;2022-10-22T11:11:54;12.20;;;1.98;;
24153;SDS011;12312;53.362;-1.518;2022-10-22T11:14:51;8.25;;;1.33;;
24153;SDS011;12312;53.362;-1.518;2022-10-22T11:17:19;11.18;;;1.75;;
24153;SDS011;12312;53.362;-1.518;2022-10-22T11:22:42;15.45;;;2.00;;
24153;SDS011;12312;53.362;-1.518;2022-10-22T11:25:20;10.73;;;1.85;;
24153;SDS011;12312;53.362;-1.518;2022-10-22T11:27:56;7.43;;;1.45;;
24153;SDS011;12312;53.362;-1.518;2022-10-22T11:30:28;8.52;;;1.48;;
24153;SDS011;12312;53.362;-1.518;2022-10-22T11:33:04;13.40;;;1.90;;
24153;SDS011;12312;53.362;-1.518;2022-10-22T11:35:44;7.85;;;1.70;;
24153;SDS011;12312;53.362;-1.518;2022-10-22T11:38:13;8.02;;;1.40;;
24153;SDS011;12312;53.362;-1.518;2022-10-22T11:41:05;8.30;;;1.45;;
24153;SDS011;12312;53.362;-1.518;2022-10-22T11:43:32;10.38;;;1.67;;
24153;SDS011;12312;53.362;-1.518;2022-10-22T11:48:41;7.97;;;1.58;;
24153;SDS011;12312;53.362;-1.518;2022-10-22T11:51:30;9.25;;;1.90;;
24153;SDS011;12312;53.362;-1.518;2022-10-22T11:54:00;10.75;;;1.75;;
24153;SDS011;12312;53.362;-1.518;2022-10-22T11:56:47;8.18;;;1.67;;
24153;SDS011;12312;53.362;-1.518;2022-10-22T11:59:32;11.93;;;1.63;;
24153;SDS011;12312;53.362;-1.518;2022-10-22T12:21:57;10.40;;;3.10;;
24153;SDS011;12312;53.362;-1.518;2022-10-22T12:24:28;10.30;;;1.33;;
24153;SDS011;12312;53.362;-1.518;2022-10-22T12:26:57;11.73;;;1.75;;
24153;SDS011;12312;53.362;-1.518;2022-10-22T12:29:23;14.30;;;2.08;;
24153;SDS011;12312;53.362;-1.518;2022-10-22T12:31:51;10.30;;;1.60;;
24153;SDS011;12312;53.362;-1.518;2022-10-22T12:34:20;10.77;;;1.20;;
24153;SDS011;12312;53.362;-1.518;2022-10-22T12:36:50;13.23;;;2.15;;
24153;SDS011;12312;53.362;-1.518;2022-10-22T12:39:19;9.27;;;1.50;;
24153;SDS011;12312;53.362;-1.518;2022-10-22T12:41:46;11.05;;;1.73;;
24153;SDS011;12312;53.362;-1.518;2022-10-22T12:44:14;13.13;;;1.80;;
24153;SDS011;12312;53.362;-1.518;2022-10-22T12:46:42;9.82;;;1.83;;
24153;SDS011;12312;53.362;-1.518;2022-10-22T12:49:12;10.55;;;2.08;;
24153;SDS011;12312;53.362;-1.518;2022-10-22T12:51:50;8.10;;;2.28;;
24153;SDS011;12312;53.362;-1.518;2022-10-22T12:56:53;12.82;;;1.58;;
24153;SDS011;12312;53.362;-1.518;2022-10-22T12:59:24;9.85;;;1.60;;
24153;SDS011;12312;53.362;-1.518;2022-10-22T13:01:53;8.48;;;1.60;;
24153;SDS011;12312;53.362;-1.518;2022-10-22T13:04:35;8.20;;;1.73;;
24153;SDS011;12312;53.362;-1.518;2022-10-22T13:09:35;14.35;;;2.00;;
24153;SDS011;12312;53.362;-1.518;2022-10-22T13:12:36;10.18;;;1.85;;
24153;SDS011;12312;53.362;-1.518;2022-10-22T13:18:17;12.15;;;1.75;;
24153;SDS011;12312;53.362;-1.518;2022-10-22T13:23:24;12.60;;;2.10;;
24153;SDS011;12312;53.362;-1.518;2022-10-22T13:25:56;10.55;;;1.63;;
24153;SDS011;12312;53.362;-1.518;2022-10-22T13:28:48;11.10;;;1.80;;
24153;SDS011;12312;53.362;-1.518;2022-10-22T13:31:24;9.55;;;1.80;;
24153;SDS011;12312;53.362;-1.518;2022-10-22T13:33:52;11.80;;;2.78;;
24153;SDS011;12312;53.362;-1.518;2022-10-22T13:36:20;9.02;;;2.03;;
24153;SDS011;12312;53.362;-1.518;2022-10-22T13:38:46;10.52;;;1.67;;
24153;SDS011;12312;53.362;-1.518;2022-10-22T13:41:22;11.90;;;2.53;;
24153;SDS011;12312;53.362;-1.518;2022-10-22T13:43:50;10.98;;;2.20;;
24153;SDS011;12312;53.362;-1.518;2022-10-22T13:46:16;6.80;;;2.42;;
24153;SDS011;12312;53.362;-1.518;2022-10-22T13:48:43;14.98;;;2.08;;
24153;SDS011;12312;53.362;-1.518;2022-10-22T13:51:12;12.02;;;2.80;;
24153;SDS011;12312;53.362;-1.518;2022-10-22T13:53:41;6.78;;;2.20;;
24153;SDS011;12312;53.362;-1.518;2022-10-22T13:56:13;6.30;;;2.03;;
24153;SDS011;12312;53.362;-1.518;2022-10-22T13:58:58;10.85;;;2.35;;
24153;SDS011;12312;53.362;-1.518;2022-10-22T14:01:35;10.57;;;1.88;;
24153;SDS011;12312;53.362;-1.518;2022-10-22T14:04:04;10.02;;;2.20;;
24153;SDS011;12312;53.362;-1.518;2022-10-22T14:06:31;9.15;;;2.10;;
24153;SDS011;12312;53.362;-1.518;2022-10-22T14:08:58;7.85;;;2.40;;
24153;SDS011;12312;53.362;-1.518;2022-10-22T14:11:26;8.02;;;2.47;;
24153;SDS011;12312;53.362;-1.518;2022-10-22T14:13:53;10.60;;;2.95;;
24153;SDS011;12312;53.362;-1.518;2022-10-22T14:16:19;8.90;;;2.78;;
24153;SDS011;12312;53.362;-1.518;2022-10-22T14:18:47;7.72;;;3.10;;
24153;SDS011;12312;53.362;-1.518;2022-10-22T14:21:14;11.02;;;3.15;;
24153;SDS011;12312;53.362;-1.518;2022-10-22T14:23:41;10.20;;;2.72;;
24153;SDS011;12312;53.362;-1.518;2022-10-22T14:26:13;7.85;;;3.38;;
24153;SDS011;12312;53.362;-1.518;2022-10-22T14:28:56;9.77;;;3.30;;
24153;SDS011;12312;53.362;-1.518;2022-10-22T14:31:23;13.80;;;3.60;;
24153;SDS011;12312;53.362;-1.518;2022-10-22T14:33:49;8.48;;;3.42;;
24153;SDS011;12312;53.362;-1.518;2022-10-22T14:36:15;10.10;;;3.97;;
24153;SDS011;12312;53.362;-1.518;2022-10-22T14:38:42;12.88;;;3.30;;
24153;SDS011;12312;53.362;-1.518;2022-10-22T14:41:13;13.20;;;3.42;;
24153;SDS011;12312;53.362;-1.518;2022-10-22T14:43:44;10.70;;;3.83;;
24153;SDS011;12312;53.362;-1.518;2022-10-22T14:46:10;10.75;;;3.58;;
24153;SDS011;12312;53.362;-1.518;2022-10-22T14:48:38;12.05;;;3.28;;
24153;SDS011;12312;53.362;-1.518;2022-10-22T14:51:04;14.40;;;3.80;;
24153;SDS011;12312;53.362;-1.518;2022-10-22T14:53:29;10.30;;;2.95;;
24153;SDS011;12312;53.362;-1.518;2022-10-22T14:55:55;8.52;;;1.98;;
24153;SDS011;12312;53.362;-1.518;2022-10-22T14:58:24;7.57;;;2.15;;
24153;SDS011;12312;53.362;-1.518;2022-10-22T15:00:50;11.60;;;2.67;;
24153;SDS011;12312;53.362;-1.518;2022-10-22T15:03:16;10.40;;;1.90;;
24153;SDS011;12312;53.362;-1.518;2022-10-22T15:05:42;5.88;;;1.80;;
24153;SDS011;12312;53.362;-1.518;2022-10-22T15:08:12;10.65;;;2.10;;
24153;SDS011;12312;53.362;-1.518;2022-10-22T15:10:41;6.95;;;1.88;;
24153;SDS011;12312;53.362;-1.518;2022-10-22T15:13:07;4.95;;;1.60;;
24153;SDS011;12312;53.362;-1.518;2022-10-22T15:15:33;8.98;;;1.63;;
24153;SDS011;12312;53.362;-1.518;2022-10-22T15:17:59;5.85;;;1.48;;
24153;SDS011;12312;53.362;-1.518;2022-10-22T15:20:25;10.07;;;1.38;;
24153;SDS011;12312;53.362;-1.518;2022-10-22T15:22:51;6.57;;;1.52;;
24153;SDS011;12312;53.362;-1.518;2022-10-22T15:25:16;5.97;;;1.30;;
24153;SDS011;12312;53.362;-1.518;2022-10-22T15:27:45;5.60;;;1.10;;
24153;SDS011;12312;53.362;-1.518;2022-10-22T15:30:10;7.43;;;1.60;;
24153;SDS011;12312;53.362;-1.518;2022-10-22T15:32:38;8.27;;;1.50;;
24153;SDS011;12312;53.362;-1.518;2022-10-22T15:35:04;6.38;;;1.50;;
24153;SDS011;12312;53.362;-1.518;2022-10-22T15:37:30;9.45;;;2.00;;
24153;SDS011;12312;53.362;-1.518;2022-10-22T15:39:56;5.05;;;1.35;;
24153;SDS011;12312;53.362;-1.518;2022-10-22T15:42:22;7.43;;;1.65;;
24153;SDS011;12312;53.362;-1.518;2022-10-22T15:44:48;5.95;;;1.35;;
24153;SDS011;12312;53.362;-1.518;2022-10-22T15:47:13;3.47;;;1.30;;
24153;SDS011;12312;53.362;-1.518;2022-10-22T15:49:39;7.57;;;1.63;;
24153;SDS011;12312;53.362;-1.518;2022-10-22T15:52:06;5.38;;;1.63;;
24153;SDS011;12312;53.362;-1.518;2022-10-22T15:54:33;7.82;;;1.80;;
24153;SDS011;12312;53.362;-1.518;2022-10-22T15:56:59;8.25;;;1.52;;
24153;SDS011;12312;53.362;-1.518;2022-10-22T15:59:32;8.05;;;1.90;;
24153;SDS011;12312;53.362;-1.518;2022-10-22T16:01:58;5.03;;;1.40;;
24153;SDS011;12312;53.362;-1.518;2022-10-22T16:04:23;10.13;;;2.03;;
24153;SDS011;12312;53.362;-1.518;2022-10-22T16:06:50;11.38;;;1.95;;
24153;SDS011;12312;53.362;-1.518;2022-10-22T16:09:23;9.32;;;2.05;;
24153;SDS011;12312;53.362;-1.518;2022-10-22T16:11:50;9.93;;;2.28;;
24153;SDS011;12312;53.362;-1.518;2022-10-22T16:14:18;10.23;;;2.20;;
24153;SDS011;12312;53.362;-1.518;2022-10-22T16:16:45;9.82;;;1.85;;
24153;SDS011;12312;53.362;-1.518;2022-10-22T16:19:15;7.72;;;1.88;;
24153;SDS011;12312;53.362;-1.518;2022-10-22T16:21:41;10.05;;;2.25;;
24153;SDS011;12312;53.362;-1.518;2022-10-22T16:24:08;8.75;;;2.25;;
24153;SDS011;12312;53.362;-1.518;2022-10-22T16:26:35;11.93;;;2.28;;
24153;SDS011;12312;53.362;-1.518;2022-10-22T16:29:03;8.95;;;1.85;;
24153;SDS011;12312;53.362;-1.518;2022-10-22T16:31:30;7.28;;;1.63;;
24153;SDS011;12312;53.362;-1.518;2022-10-22T16:33:56;8.75;;;1.67;;
24153;SDS011;12312;53.362;-1.518;2022-10-22T16:36:22;10.00;;;2.00;;
24153;SDS011;12312;53.362;-1.518;2022-10-22T16:38:47;7.70;;;1.88;;
24153;SDS011;12312;53.362;-1.518;2022-10-22T16:41:15;14.52;;;2.40;;
24153;SDS011;12312;53.362;-1.518;2022-10-22T16:43:43;10.73;;;2.10;;
24153;SDS011;12312;53.362;-1.518;2022-10-22T16:46:14;10.32;;;2.70;;
24153;SDS011;12312;53.362;-1.518;2022-10-22T16:48:47;11.73;;;2.10;;
24153;SDS011;12312;53.362;-1.518;2022-10-22T16:51:18;11.70;;;2.33;;
24153;SDS011;12312;53.362;-1.518;2022-10-22T16:53:45;7.72;;;1.95;;
24153;SDS011;12312;53.362;-1.518;2022-10-22T16:56:12;7.90;;;2.65;;